Time;durP1;ratioP1;P1;durP2;ratioP2;P2;SDS_P1;SDS_P2;PMS_P1;PMS_P2;Temp;Humidity;BMP_temperature;BMP_pressure;BME280_temperature;BME280_humidity;BME280_pressure;Samples;Min_cycle;Max_cycle;Signal;HPM_P1;HPM_P2
2022/03/26 00:00:43;;;;;;;26.07;15.10;;;14.90;1.00;;;;;;5059044;28;20455;-77
2022/03/26 00:03:11;;;;;;;21.27;14.60;;;14.90;1.00;;;;;;5053894;28;20457;-77
2022/03/26 00:05:41;;;;;;;23.47;15.40;;;14.90;1.00;;;;;;5058241;28;20496;-78
2022/03/26 00:08:09;;;;;;;24.97;16.00;;;14.70;1.00;;;;;;5052336;28;20509;-77
2022/03/26 00:10:37;;;;;;;27.97;16.80;;;14.70;1.00;;;;;;5059173;28;20451;-77
2022/03/26 00:13:07;;;;;;;26.90;16.97;;;14.60;1.00;;;;;;5061633;28;20458;-77
2022/03/26 00:15:35;;;;;;;26.60;16.80;;;14.50;1.00;;;;;;5062261;28;21019;-78
2022/03/26 00:18:04;;;;;;;26.27;17.07;;;14.50;1.00;;;;;;5061089;28;20484;-78
2022/03/26 00:20:32;;;;;;;27.50;16.37;;;14.50;1.00;;;;;;5062152;28;20458;-78
2022/03/26 00:23:00;;;;;;;29.20;15.90;;;14.50;1.00;;;;;;5064737;28;20881;-77
2022/03/26 00:25:28;;;;;;;28.20;16.63;;;14.50;1.00;;;;;;5061444;28;20960;-78
2022/03/26 00:27:56;;;;;;;24.87;16.27;;;14.40;1.00;;;;;;5062135;28;20505;-77
2022/03/26 00:30:26;;;;;;;27.10;16.10;;;14.40;1.00;;;;;;5058769;28;20472;-77
2022/03/26 00:32:54;;;;;;;24.40;16.07;;;14.30;1.00;;;;;;5062376;28;20450;-77
2022/03/26 00:35:23;;;;;;;25.57;16.53;;;14.30;1.00;;;;;;5058380;28;20445;-77
2022/03/26 00:37:52;;;;;;;24.90;15.97;;;14.30;1.00;;;;;;5061102;28;20477;-78
2022/03/26 00:40:21;;;;;;;26.67;16.53;;;14.20;1.00;;;;;;5061480;28;20470;-78
2022/03/26 00:42:49;;;;;;;26.33;16.27;;;14.10;1.00;;;;;;5062277;28;20806;-79
2022/03/26 00:45:17;;;;;;;27.17;16.17;;;14.10;1.00;;;;;;5057140;28;20468;-78
2022/03/26 00:47:46;;;;;;;33.53;17.50;;;14.10;1.00;;;;;;5058085;28;20478;-78
2022/03/26 00:50:15;;;;;;;25.23;14.40;;;14.10;1.00;;;;;;5062468;28;20458;-77
2022/03/26 00:52:43;;;;;;;23.63;15.40;;;14.00;1.00;;;;;;5062172;28;20470;-77
2022/03/26 00:55:11;;;;;;;27.80;16.80;;;14.00;1.00;;;;;;5060225;28;20524;-77
2022/03/26 00:57:39;;;;;;;26.20;15.90;;;13.90;1.00;;;;;;5064070;28;20454;-77
2022/03/26 01:00:09;;;;;;;25.67;14.40;;;13.80;1.00;;;;;;5061897;28;20838;-77
2022/03/26 01:02:37;;;;;;;28.67;17.37;;;13.80;1.00;;;;;;5058069;28;20465;-78
2022/03/26 01:05:10;;;;;;;25.50;16.17;;;13.70;1.00;;;;;;5061236;28;20998;-77
2022/03/26 01:07:39;;;;;;;25.27;15.77;;;13.60;1.00;;;;;;5063315;28;20539;-77
2022/03/26 01:10:08;;;;;;;25.77;15.93;;;13.50;1.00;;;;;;5063491;28;20538;-77
2022/03/26 01:12:36;;;;;;;28.90;16.93;;;13.50;1.00;;;;;;5057228;28;20957;-77
2022/03/26 01:15:06;;;;;;;25.17;16.10;;;13.60;1.00;;;;;;5062884;28;20982;-79
2022/03/26 01:17:34;;;;;;;27.10;15.57;;;13.60;1.00;;;;;;5051288;28;20490;-78
2022/03/26 01:20:02;;;;;;;25.07;15.97;;;13.50;1.00;;;;;;5059598;28;20453;-77
2022/03/26 01:22:32;;;;;;;23.17;15.80;;;13.60;1.00;;;;;;5059100;28;21154;-77
2022/03/26 01:25:00;;;;;;;27.00;17.80;;;13.60;1.00;;;;;;5055445;28;20458;-77
2022/03/26 01:27:28;;;;;;;27.73;16.00;;;13.50;1.00;;;;;;5062711;28;20480;-76
2022/03/26 01:29:56;;;;;;;27.70;15.77;;;13.50;1.00;;;;;;5058895;28;21043;-77
2022/03/26 01:32:24;;;;;;;23.33;15.60;;;13.40;1.00;;;;;;5057834;28;20511;-77
2022/03/26 01:34:52;;;;;;;27.43;15.57;;;13.40;1.00;;;;;;5052257;28;20469;-77
2022/03/26 01:37:20;;;;;;;27.23;15.87;;;13.30;1.00;;;;;;5053224;28;20459;-77
2022/03/26 01:39:50;;;;;;;24.77;15.50;;;13.20;1.00;;;;;;5056660;28;20486;-78
2022/03/26 01:42:19;;;;;;;22.77;14.13;;;13.20;1.00;;;;;;5053210;28;20535;-77
2022/03/26 01:44:48;;;;;;;24.97;14.80;;;13.20;1.00;;;;;;5055590;28;20453;-77
2022/03/26 01:47:17;;;;;;;22.40;14.63;;;13.20;1.00;;;;;;5052837;28;20478;-78
2022/03/26 01:49:45;;;;;;;23.70;15.50;;;13.20;1.00;;;;;;5055899;28;20485;-77
2022/03/26 01:52:13;;;;;;;31.47;18.10;;;13.20;1.00;;;;;;5057822;28;20510;-76
2022/03/26 01:54:43;;;;;;;28.00;15.97;;;13.10;1.00;;;;;;5058808;28;20465;-77
2022/03/26 01:57:13;;;;;;;25.53;15.90;;;13.10;1.00;;;;;;5059963;28;20437;-76
2022/03/26 01:59:43;;;;;;;26.40;15.50;;;13.10;1.00;;;;;;5058164;28;20551;-77
2022/03/26 02:02:11;;;;;;;25.23;14.90;;;13.10;1.00;;;;;;5061645;28;20465;-76
2022/03/26 02:04:39;;;;;;;25.30;15.57;;;13.00;1.00;;;;;;5053834;28;20459;-76
2022/03/26 02:07:08;;;;;;;23.60;15.07;;;13.00;1.00;;;;;;5058776;28;20491;-76
2022/03/26 02:09:36;;;;;;;32.40;16.00;;;13.00;1.00;;;;;;5055771;28;20473;-78
2022/03/26 02:12:22;;;;;;;28.23;17.13;;;13.00;1.00;;;;;;5063299;28;21094;-76
2022/03/26 02:14:51;;;;;;;24.50;14.40;;;13.00;1.00;;;;;;5061821;28;20480;-78
2022/03/26 02:17:20;;;;;;;26.07;15.17;;;12.90;1.00;;;;;;5061218;28;20455;-77
2022/03/26 02:19:50;;;;;;;25.57;15.70;;;12.90;1.00;;;;;;5061477;28;20487;-77
2022/03/26 02:22:20;;;;;;;22.73;13.93;;;12.70;1.00;;;;;;5060461;28;20930;-77
2022/03/26 02:24:48;;;;;;;26.50;14.57;;;12.80;1.00;;;;;;5052016;28;20468;-77
2022/03/26 02:27:20;;;;;;;26.30;16.60;;;12.80;1.00;;;;;;5055398;28;21118;-77
2022/03/26 02:29:49;;;;;;;24.40;14.33;;;12.70;1.00;;;;;;5061131;28;20483;-77
2022/03/26 02:32:20;;;;;;;26.50;16.57;;;12.60;1.00;;;;;;5060575;28;20449;-76
2022/03/26 02:34:50;;;;;;;23.50;14.43;;;12.60;1.00;;;;;;5058835;28;20451;-77
2022/03/26 02:37:34;;;;;;;25.33;15.03;;;12.60;1.00;;;;;;5059309;28;20463;-76
2022/03/26 02:40:07;;;;;;;22.50;14.03;;;12.50;1.00;;;;;;5062011;28;20958;-77
2022/03/26 02:42:35;;;;;;;27.17;15.40;;;12.50;1.00;;;;;;5061472;28;20461;-77
2022/03/26 02:45:05;;;;;;;22.77;15.60;;;12.50;1.00;;;;;;5059365;28;20456;-77
2022/03/26 02:47:33;;;;;;;23.57;15.37;;;12.50;1.00;;;;;;5066227;28;20559;-77
2022/03/26 02:50:03;;;;;;;27.77;15.80;;;12.50;1.00;;;;;;5058768;28;20550;-77
2022/03/26 02:52:31;;;;;;;25.97;16.40;;;12.60;1.00;;;;;;5055872;28;20510;-77
2022/03/26 02:54:59;;;;;;;27.33;14.50;;;12.50;1.00;;;;;;5053672;28;20468;-77
2022/03/26 02:57:27;;;;;;;25.53;14.30;;;12.40;1.00;;;;;;5057546;28;20448;-76
2022/03/26 02:59:55;;;;;;;26.07;15.53;;;12.50;1.00;;;;;;5059608;28;20467;-76
2022/03/26 03:02:23;;;;;;;28.30;14.80;;;12.60;1.00;;;;;;5056399;28;20455;-76
2022/03/26 03:04:52;;;;;;;27.57;17.37;;;12.50;1.00;;;;;;5056041;28;20459;-77
2022/03/26 03:07:22;;;;;;;23.20;15.40;;;12.40;1.00;;;;;;5059286;28;20459;-77
2022/03/26 03:09:50;;;;;;;19.73;15.47;;;12.30;1.00;;;;;;5053667;28;20480;-76
2022/03/26 03:12:20;;;;;;;23.80;16.57;;;12.30;1.00;;;;;;5064322;28;20456;-77
2022/03/26 03:14:48;;;;;;;22.37;15.20;;;12.30;1.00;;;;;;5056490;28;20942;-77
2022/03/26 03:17:16;;;;;;;24.20;15.20;;;12.30;1.00;;;;;;5053629;28;20452;-76
2022/03/26 03:19:45;;;;;;;23.27;15.53;;;12.20;1.00;;;;;;5060921;28;21490;-76
2022/03/26 03:22:13;;;;;;;25.57;15.50;;;12.20;1.00;;;;;;5059941;28;20443;-76
2022/03/26 03:24:42;;;;;;;25.33;16.33;;;12.20;1.00;;;;;;5051878;28;21044;-76
2022/03/26 03:27:10;;;;;;;21.40;14.57;;;12.00;1.00;;;;;;5063122;28;20458;-76
2022/03/26 03:29:38;;;;;;;26.70;15.90;;;12.10;1.00;;;;;;5060125;28;20489;-76
2022/03/26 03:32:07;;;;;;;25.57;14.87;;;12.30;1.00;;;;;;5057456;28;20444;-77
2022/03/26 03:34:35;;;;;;;23.90;15.10;;;12.00;1.00;;;;;;5061679;28;20994;-77
2022/03/26 03:37:04;;;;;;;27.80;17.77;;;12.10;1.00;;;;;;5064240;28;20464;-77
2022/03/26 03:39:32;;;;;;;27.33;16.07;;;12.00;1.00;;;;;;5057508;28;20466;-76
2022/03/26 03:42:02;;;;;;;27.00;15.80;;;12.00;1.00;;;;;;5062199;28;20451;-76
2022/03/26 03:44:30;;;;;;;23.47;16.27;;;11.90;1.00;;;;;;5056964;28;20466;-76
2022/03/26 03:46:58;;;;;;;27.80;16.37;;;11.80;1.00;;;;;;5061737;28;20465;-76
2022/03/26 03:49:29;;;;;;;23.20;15.30;;;11.70;1.00;;;;;;5063210;28;20993;-76
2022/03/26 03:51:57;;;;;;;25.07;15.60;;;11.60;1.00;;;;;;5065197;28;20469;-77
2022/03/26 03:54:25;;;;;;;26.07;16.30;;;11.80;1.00;;;;;;5070341;28;20458;-78
2022/03/26 03:56:55;;;;;;;26.13;15.80;;;11.90;1.00;;;;;;5065651;28;21002;-77
2022/03/26 03:59:25;;;;;;;22.47;14.63;;;11.80;1.00;;;;;;5066391;28;21238;-76
2022/03/26 04:01:53;;;;;;;28.40;18.47;;;12.00;1.00;;;;;;5058181;28;20459;-76
2022/03/26 04:04:21;;;;;;;21.43;14.27;;;11.90;1.00;;;;;;5061728;28;21158;-75
2022/03/26 04:06:50;;;;;;;24.30;16.33;;;11.90;1.00;;;;;;5063328;28;21129;-75
2022/03/26 04:09:18;;;;;;;24.67;15.00;;;11.90;1.00;;;;;;5057469;28;20470;-76
2022/03/26 04:11:46;;;;;;;26.17;16.27;;;11.80;1.00;;;;;;5058432;28;20452;-77
2022/03/26 04:14:14;;;;;;;24.07;16.60;;;11.70;1.00;;;;;;5058534;28;20901;-76
2022/03/26 04:16:43;;;;;;;26.30;14.93;;;11.70;1.00;;;;;;5061784;28;20454;-77
2022/03/26 04:19:12;;;;;;;26.30;14.97;;;11.70;1.00;;;;;;5068952;28;20470;-78
2022/03/26 04:21:41;;;;;;;27.60;17.63;;;11.80;1.00;;;;;;5063359;28;20455;-80
2022/03/26 04:24:09;;;;;;;28.27;15.00;;;11.80;1.00;;;;;;5057866;28;20971;-78
2022/03/26 04:26:37;;;;;;;26.97;16.93;;;11.70;1.00;;;;;;5065500;28;21116;-78
2022/03/26 04:29:05;;;;;;;26.40;15.47;;;11.50;1.00;;;;;;5056421;28;20565;-78
2022/03/26 04:31:33;;;;;;;25.20;14.47;;;11.50;1.00;;;;;;5061568;28;20462;-78
2022/03/26 04:34:03;;;;;;;23.03;14.70;;;11.80;1.00;;;;;;5063407;28;20451;-77
2022/03/26 04:36:32;;;;;;;26.70;16.50;;;11.50;1.00;;;;;;5053005;28;21197;-78
2022/03/26 04:39:01;;;;;;;27.13;15.53;;;11.50;1.00;;;;;;5058134;28;20566;-78
2022/03/26 04:41:29;;;;;;;24.07;14.20;;;11.50;1.00;;;;;;5059773;28;20480;-78
2022/03/26 04:43:57;;;;;;;24.23;16.20;;;11.50;1.00;;;;;;5060714;28;20509;-78
2022/03/26 04:46:25;;;;;;;24.93;15.00;;;11.50;1.00;;;;;;5060403;28;20878;-78
2022/03/26 04:48:53;;;;;;;26.20;16.70;;;11.40;1.00;;;;;;5065391;28;20470;-78
2022/03/26 04:51:23;;;;;;;25.33;16.33;;;11.50;1.00;;;;;;5058807;28;20454;-76
2022/03/26 04:53:51;;;;;;;27.70;15.70;;;11.40;1.00;;;;;;5059329;28;20517;-78
2022/03/26 04:56:20;;;;;;;23.80;14.37;;;11.40;1.00;;;;;;5054420;28;20451;-77
2022/03/26 04:58:48;;;;;;;29.10;15.80;;;11.30;1.00;;;;;;5056804;28;20460;-77
2022/03/26 05:01:17;;;;;;;27.57;16.60;;;11.30;1.00;;;;;;5064886;28;20575;-77
2022/03/26 05:03:45;;;;;;;24.00;15.03;;;11.30;1.00;;;;;;5060603;28;20458;-77
2022/03/26 05:06:14;;;;;;;30.90;15.27;;;11.30;1.00;;;;;;5056987;28;20451;-77
2022/03/26 05:08:43;;;;;;;26.50;16.33;;;11.30;1.00;;;;;;5059579;28;20489;-76
2022/03/26 05:11:13;;;;;;;25.80;15.53;;;11.20;1.00;;;;;;5057602;28;20457;-77
2022/03/26 05:13:42;;;;;;;22.87;14.17;;;11.20;1.00;;;;;;5060626;28;20458;-77
2022/03/26 05:16:10;;;;;;;21.67;14.50;;;11.20;1.00;;;;;;5057353;28;22548;-76
2022/03/26 05:18:39;;;;;;;26.10;15.37;;;11.20;1.00;;;;;;5057306;28;20471;-77
2022/03/26 05:21:08;;;;;;;25.47;15.70;;;11.20;1.00;;;;;;5064364;28;20448;-76
2022/03/26 05:23:36;;;;;;;22.97;16.00;;;11.20;1.00;;;;;;5062483;28;20462;-76
2022/03/26 05:26:06;;;;;;;25.70;16.60;;;11.20;1.00;;;;;;5064499;28;20459;-77
2022/03/26 05:28:34;;;;;;;25.60;15.77;;;11.30;1.00;;;;;;5067101;28;20905;-77
2022/03/26 05:31:02;;;;;;;28.13;15.33;;;11.20;1.00;;;;;;5064579;28;20542;-76
2022/03/26 05:33:30;;;;;;;24.10;13.63;;;11.20;1.00;;;;;;5059449;28;20501;-77
2022/03/26 05:35:58;;;;;;;22.47;14.23;;;11.10;1.00;;;;;;5062217;28;20462;-76
2022/03/26 05:38:27;;;;;;;24.07;15.93;;;11.10;1.00;;;;;;5059716;28;20486;-76
2022/03/26 05:40:55;;;;;;;26.40;16.87;;;11.10;1.00;;;;;;5055963;28;20447;-77
2022/03/26 05:43:24;;;;;;;24.77;14.80;;;11.00;1.00;;;;;;5059960;28;20825;-76
2022/03/26 05:45:53;;;;;;;23.47;13.90;;;11.00;1.00;;;;;;5062843;28;20449;-78
2022/03/26 05:48:21;;;;;;;25.47;15.27;;;11.00;1.00;;;;;;5055718;28;20478;-76
2022/03/26 05:50:50;;;;;;;23.30;15.27;;;11.00;1.00;;;;;;5060194;28;20864;-78
2022/03/26 05:53:18;;;;;;;20.63;13.33;;;10.90;1.00;;;;;;5058207;28;20443;-77
2022/03/26 05:55:46;;;;;;;24.87;14.40;;;10.90;1.00;;;;;;5058079;28;20454;-77
2022/03/26 05:58:15;;;;;;;25.53;14.90;;;10.90;1.00;;;;;;5059079;28;21437;-76
2022/03/26 06:00:45;;;;;;;23.60;15.70;;;10.90;1.00;;;;;;5056430;28;20557;-77
2022/03/26 06:03:14;;;;;;;30.80;14.70;;;11.00;1.00;;;;;;5059803;28;20454;-75
2022/03/26 06:05:43;;;;;;;21.10;13.10;;;11.10;1.00;;;;;;5053528;28;20440;-75
2022/03/26 06:08:11;;;;;;;25.43;14.67;;;11.00;1.00;;;;;;5051233;28;21073;-76
2022/03/26 06:10:39;;;;;;;19.37;13.47;;;11.00;1.00;;;;;;5050858;28;20476;-76
2022/03/26 06:13:07;;;;;;;26.63;15.00;;;11.00;1.00;;;;;;5063036;28;20526;-76
2022/03/26 06:15:36;;;;;;;20.50;13.97;;;10.90;1.00;;;;;;5055430;28;20982;-76
2022/03/26 06:18:13;;;;;;;23.93;15.83;;;10.90;1.00;;;;;;5060734;28;20466;-76
2022/03/26 06:20:42;;;;;;;29.70;16.17;;;11.10;1.00;;;;;;5060803;28;20945;-76
2022/03/26 06:23:11;;;;;;;28.17;15.07;;;10.90;1.00;;;;;;5061975;28;20470;-76
2022/03/26 06:25:39;;;;;;;25.20;15.40;;;11.10;1.00;;;;;;5055581;28;20467;-76
2022/03/26 06:28:07;;;;;;;29.07;16.73;;;11.50;1.00;;;;;;5058072;28;20483;-76
2022/03/26 06:30:36;;;;;;;24.67;17.17;;;11.40;1.00;;;;;;5054324;28;20483;-76
2022/03/26 06:33:04;;;;;;;30.53;17.73;;;11.50;1.00;;;;;;5055328;28;21247;-76
2022/03/26 06:35:33;;;;;;;25.37;14.93;;;11.60;1.00;;;;;;5058712;28;20452;-76
2022/03/26 06:38:01;;;;;;;24.70;15.97;;;11.70;1.00;;;;;;5054646;28;20554;-76
2022/03/26 06:40:30;;;;;;;26.40;15.40;;;11.80;1.00;;;;;;5060169;28;20993;-77
2022/03/26 06:42:58;;;;;;;23.53;15.20;;;11.90;1.00;;;;;;5057681;28;20448;-76
2022/03/26 06:45:26;;;;;;;28.30;18.38;;;11.90;1.00;;;;;;5052394;28;20474;-76
2022/03/26 06:47:55;;;;;;;29.50;18.37;;;12.00;1.00;;;;;;5056102;28;20216;-75
2022/03/26 06:50:23;;;;;;;25.33;16.97;;;12.10;1.00;;;;;;5054204;28;20559;-74
2022/03/26 06:52:53;;;;;;;28.50;15.13;;;12.10;1.00;;;;;;5054203;28;20460;-76
2022/03/26 06:55:21;;;;;;;23.33;14.90;;;12.20;1.00;;;;;;5061522;28;20455;-76
2022/03/26 06:57:50;;;;;;;26.90;15.40;;;12.30;1.00;;;;;;5058218;28;20461;-75
2022/03/26 07:00:19;;;;;;;26.53;15.00;;;12.40;1.00;;;;;;5066269;28;20443;-75
2022/03/26 07:02:47;;;;;;;26.87;15.80;;;12.50;1.00;;;;;;5059287;28;20452;-74
2022/03/26 07:05:16;;;;;;;23.07;15.47;;;12.50;1.00;;;;;;5060646;28;20577;-77
2022/03/26 07:07:44;;;;;;;26.07;16.03;;;12.50;1.00;;;;;;5053151;28;20595;-76
2022/03/26 07:10:14;;;;;;;27.97;18.03;;;12.30;1.00;;;;;;5055716;28;20490;-75
2022/03/26 07:12:42;;;;;;;27.83;18.33;;;12.30;1.00;;;;;;5051881;28;20451;-75
2022/03/26 07:15:10;;;;;;;28.00;18.80;;;12.70;1.00;;;;;;5053117;28;20462;-75
2022/03/26 07:17:39;;;;;;;24.43;16.07;;;12.50;1.00;;;;;;5055946;28;20464;-75
2022/03/26 07:20:09;;;;;;;26.67;16.50;;;12.60;1.00;;;;;;5058121;28;20788;-75
2022/03/26 07:22:37;;;;;;;25.80;15.73;;;12.80;1.00;;;;;;5061508;28;20823;-76
2022/03/26 07:25:07;;;;;;;25.97;15.60;;;12.90;1.00;;;;;;5055099;28;20509;-75
2022/03/26 07:27:37;;;;;;;26.90;16.60;;;12.80;1.00;;;;;;5055519;28;20456;-77
2022/03/26 07:30:07;;;;;;;23.70;16.80;;;13.00;1.00;;;;;;5057937;28;20476;-78
2022/03/26 07:32:35;;;;;;;23.93;16.10;;;13.10;1.00;;;;;;5063287;28;20951;-76
2022/03/26 07:35:04;;;;;;;26.43;16.57;;;13.20;1.00;;;;;;5056956;28;20510;-74
2022/03/26 07:37:32;;;;;;;25.00;15.47;;;13.30;1.00;;;;;;5056152;28;20468;-75
2022/03/26 07:40:01;;;;;;;28.13;16.03;;;13.40;1.00;;;;;;5050493;28;20456;-76
2022/03/26 07:42:29;;;;;;;25.40;15.70;;;13.50;1.00;;;;;;5053188;28;20484;-75
2022/03/26 07:44:59;;;;;;;22.37;16.20;;;13.50;1.00;;;;;;5056655;28;20445;-75
2022/03/26 07:47:27;;;;;;;29.87;16.67;;;13.70;1.00;;;;;;5055390;28;20963;-75
2022/03/26 07:49:55;;;;;;;27.33;16.30;;;13.80;1.00;;;;;;5056756;28;20487;-78
2022/03/26 07:52:23;;;;;;;26.70;15.67;;;13.90;1.00;;;;;;5056128;28;20464;-76
2022/03/26 07:54:51;;;;;;;24.20;14.93;;;14.10;1.00;;;;;;5054560;28;20456;-75
2022/03/26 07:57:19;;;;;;;24.27;15.53;;;14.30;1.00;;;;;;5057723;28;21114;-75
2022/03/26 07:59:47;;;;;;;27.73;18.50;;;14.50;1.00;;;;;;5057722;28;20485;-76
2022/03/26 08:02:17;;;;;;;27.80;15.80;;;14.60;1.00;;;;;;5053946;28;21068;-78
2022/03/26 08:04:46;;;;;;;25.97;16.47;;;14.90;1.00;;;;;;5052178;28;20462;-79
2022/03/26 08:07:14;;;;;;;24.70;17.00;;;15.10;1.00;;;;;;5054239;28;20506;-77
2022/03/26 08:09:42;;;;;;;26.60;16.67;;;15.30;1.00;;;;;;5060756;28;20476;-76
2022/03/26 08:12:11;;;;;;;21.37;16.03;;;15.40;1.00;;;;;;5060766;28;20475;-75
2022/03/26 08:14:39;;;;;;;31.93;16.90;;;15.50;1.00;;;;;;5057969;28;20454;-77
2022/03/26 08:17:08;;;;;;;24.90;16.20;;;15.70;1.00;;;;;;5055697;28;20447;-78
2022/03/26 08:19:38;;;;;;;32.93;15.30;;;15.90;1.00;;;;;;5057228;28;20988;-78
2022/03/26 08:22:06;;;;;;;25.30;14.97;;;16.10;1.00;;;;;;5059440;28;20444;-75
2022/03/26 08:24:34;;;;;;;28.30;16.50;;;16.30;1.00;;;;;;5046813;28;20516;-76
2022/03/26 08:27:03;;;;;;;29.93;15.97;;;16.40;1.00;;;;;;5048748;28;20461;-77
2022/03/26 08:29:32;;;;;;;22.60;14.27;;;16.50;1.00;;;;;;5056045;28;20474;-77
2022/03/26 08:32:02;;;;;;;27.58;16.30;;;16.60;1.00;;;;;;5059758;28;20448;-78
2022/03/26 08:34:30;;;;;;;24.43;14.23;;;16.60;1.00;;;;;;5060256;28;20207;-81
2022/03/26 08:37:00;;;;;;;28.80;16.63;;;16.70;1.00;;;;;;5060853;28;20445;-79
2022/03/26 08:39:28;;;;;;;26.60;17.83;;;16.70;1.00;;;;;;5058195;28;20440;-77
2022/03/26 08:41:56;;;;;;;26.67;15.30;;;16.70;1.00;;;;;;5057775;28;20197;-78
2022/03/26 08:44:24;;;;;;;29.07;16.83;;;16.80;1.00;;;;;;5065000;28;20467;-79
2022/03/26 08:46:53;;;;;;;26.70;17.30;;;16.80;1.00;;;;;;5059040;28;20583;-79
2022/03/26 08:49:21;;;;;;;26.70;15.90;;;16.70;1.00;;;;;;5060022;28;20482;-79
2022/03/26 08:51:49;;;;;;;27.70;15.20;;;16.80;1.00;;;;;;5059156;28;20488;-79
2022/03/26 08:54:19;;;;;;;29.60;15.70;;;16.90;1.00;;;;;;5058925;28;20469;-79
2022/03/26 08:56:47;;;;;;;22.27;14.67;;;16.90;1.00;;;;;;5055457;28;21154;-79
2022/03/26 08:59:16;;;;;;;27.97;16.70;;;16.90;1.00;;;;;;5058866;28;20484;-79
2022/03/26 09:01:44;;;;;;;27.23;17.70;;;16.90;1.00;;;;;;5056533;28;20452;-80
2022/03/26 09:04:14;;;;;;;19.57;13.67;;;16.90;1.00;;;;;;5063122;28;20469;-79
2022/03/26 09:06:42;;;;;;;24.47;15.87;;;16.90;1.00;;;;;;5060532;28;20538;-79
2022/03/26 09:09:11;;;;;;;27.00;16.10;;;17.00;1.00;;;;;;5064711;28;20478;-78
2022/03/26 09:11:40;;;;;;;23.77;15.23;;;17.10;1.00;;;;;;5062176;28;20491;-79
2022/03/26 09:14:08;;;;;;;23.97;16.27;;;17.20;1.00;;;;;;5061259;28;21029;-77
2022/03/26 09:16:37;;;;;;;27.43;16.07;;;17.30;1.00;;;;;;5056266;28;20476;-78
2022/03/26 09:19:05;;;;;;;24.87;16.60;;;17.30;1.00;;;;;;5062242;28;20468;-80
2022/03/26 09:21:33;;;;;;;28.47;17.03;;;17.40;1.00;;;;;;5059894;28;20452;-79
2022/03/26 09:24:01;;;;;;;31.50;17.30;;;17.50;1.00;;;;;;5062879;28;20456;-79
2022/03/26 09:26:30;;;;;;;24.63;15.87;;;17.50;1.00;;;;;;5056750;28;20545;-78
2022/03/26 09:28:59;;;;;;;29.10;17.10;;;17.50;1.00;;;;;;5065027;28;20475;-79
2022/03/26 09:31:28;;;;;;;23.77;15.60;;;17.60;1.00;;;;;;5062989;28;20996;-78
2022/03/26 09:33:56;;;;;;;29.97;16.20;;;17.70;1.00;;;;;;5063039;28;20533;-78
2022/03/26 09:36:24;;;;;;;30.40;16.67;;;17.70;1.00;;;;;;5061049;28;20565;-79
2022/03/26 09:38:52;;;;;;;27.20;16.47;;;17.80;1.00;;;;;;5055593;28;20515;-78
2022/03/26 09:41:23;;;;;;;26.70;18.35;;;17.80;1.00;;;;;;5060380;28;20531;-80
2022/03/26 09:43:51;;;;;;;27.83;16.30;;;17.80;1.00;;;;;;5058559;28;20232;-80
2022/03/26 09:46:22;;;;;;;23.20;16.07;;;17.90;1.00;;;;;;5058441;28;20442;-80
2022/03/26 09:48:50;;;;;;;30.20;17.70;;;17.90;1.00;;;;;;5055800;28;21410;-79
2022/03/26 09:51:22;;;;;;;26.80;15.67;;;18.00;1.00;;;;;;5067153;28;20903;-79
2022/03/26 09:53:53;;;;;;;25.63;16.80;;;18.10;1.00;;;;;;5064004;28;20945;-81
2022/03/26 09:56:23;;;;;;;24.97;16.83;;;18.10;1.00;;;;;;5063692;28;20515;-79
2022/03/26 09:58:52;;;;;;;27.73;15.80;;;18.00;1.00;;;;;;5063207;28;21257;-78
2022/03/26 10:01:22;;;;;;;24.93;15.43;;;18.00;1.00;;;;;;5063392;28;20525;-81
2022/03/26 10:04:10;;;;;;;27.90;17.60;;;18.10;1.00;;;;;;5066704;28;20961;-80
2022/03/26 10:06:47;;;;;;;25.17;16.53;;;18.30;1.00;;;;;;5053860;28;20467;-79
2022/03/26 10:09:26;;;;;;;25.23;15.90;;;18.20;1.00;;;;;;5068978;28;20473;-79
2022/03/26 10:12:02;;;;;;;30.80;17.97;;;18.30;1.00;;;;;;5062604;28;20567;-80
2022/03/26 10:14:45;;;;;;;22.73;15.67;;;18.40;1.00;;;;;;5057001;28;20484;-83
2022/03/26 10:17:20;;;;;;;26.20;16.17;;;18.50;1.00;;;;;;5067026;28;20865;-79
2022/03/26 10:19:50;;;;;;;25.77;15.70;;;18.60;1.00;;;;;;5065651;28;20857;-80
2022/03/26 10:22:31;;;;;;;25.83;16.03;;;18.60;1.00;;;;;;5067366;28;20854;-80
2022/03/26 10:25:01;;;;;;;28.40;18.23;;;18.70;1.00;;;;;;5063777;28;20462;-81
2022/03/26 10:27:34;;;;;;;30.90;17.13;;;18.70;1.00;;;;;;5062580;28;20454;-80
2022/03/26 10:30:09;;;;;;;29.03;16.37;;;18.70;1.00;;;;;;5060128;28;20443;-79
2022/03/26 10:32:45;;;;;;;30.90;18.80;;;18.70;1.00;;;;;;5063047;28;20477;-80
2022/03/26 10:35:17;;;;;;;23.97;17.23;;;18.80;1.00;;;;;;5067425;28;20553;-79
2022/03/26 10:37:48;;;;;;;26.07;16.80;;;18.90;1.00;;;;;;5061919;28;20456;-80
2022/03/26 10:40:19;;;;;;;23.50;16.50;;;18.90;1.00;;;;;;5058827;28;20492;-79
2022/03/26 10:42:56;;;;;;;29.10;19.13;;;18.90;1.00;;;;;;5060784;28;20941;-80
2022/03/26 10:45:25;;;;;;;27.20;16.73;;;18.80;1.00;;;;;;5049853;28;20518;-78
2022/03/26 10:47:59;;;;;;;27.83;16.70;;;18.80;1.00;;;;;;5053545;28;20447;-79
2022/03/26 10:50:33;;;;;;;28.17;16.03;;;18.90;1.00;;;;;;5051196;28;20450;-79
2022/03/26 10:53:07;;;;;;;25.93;16.07;;;19.00;1.00;;;;;;5058657;28;20901;-81
2022/03/26 10:55:39;;;;;;;28.90;16.80;;;18.90;1.00;;;;;;5054073;28;20481;-78
2022/03/26 10:58:08;;;;;;;30.07;17.53;;;18.90;1.00;;;;;;5053679;28;20529;-79
2022/03/26 11:00:36;;;;;;;24.73;16.27;;;19.00;1.00;;;;;;5051988;28;20443;-78
2022/03/26 11:03:06;;;;;;;24.83;14.30;;;19.10;1.00;;;;;;5052172;28;20453;-80
2022/03/26 11:05:36;;;;;;;23.33;15.57;;;18.90;1.00;;;;;;5057419;28;20446;-78
2022/03/26 11:08:06;;;;;;;29.90;16.53;;;19.00;1.00;;;;;;5051177;28;20485;-78
2022/03/26 11:10:34;;;;;;;27.33;18.23;;;19.00;1.00;;;;;;5052493;28;20445;-78
2022/03/26 11:13:03;;;;;;;23.57;17.00;;;19.20;1.00;;;;;;5050980;28;20266;-78
2022/03/26 11:15:37;;;;;;;24.90;15.47;;;19.30;1.00;;;;;;5052548;28;20447;-78
2022/03/26 11:18:40;;;;;;;20.17;14.50;;;19.40;1.00;;;;;;5052077;28;20481;-77
2022/03/26 11:21:40;;;;;;;22.83;14.03;;;19.60;1.00;;;;;;5040539;28;20470;-79
2022/03/26 11:24:28;;;;;;;22.40;14.77;;;19.60;1.00;;;;;;5053048;28;20832;-78
2022/03/26 11:27:15;;;;;;;21.57;14.60;;;19.70;1.00;;;;;;5057121;28;20458;-78
2022/03/26 11:30:03;;;;;;;22.10;14.93;;;19.80;1.00;;;;;;5060072;28;20502;-78
2022/03/26 11:32:34;;;;;;;24.80;14.97;;;19.90;1.00;;;;;;5056362;28;20486;-78
2022/03/26 11:35:08;;;;;;;23.07;14.50;;;19.90;1.00;;;;;;5053100;28;20455;-78
2022/03/26 11:37:50;;;;;;;24.60;15.37;;;20.00;1.00;;;;;;5053026;28;20466;-78
2022/03/26 11:40:42;;;;;;;24.10;15.23;;;20.10;1.00;;;;;;5050343;28;20456;-78
2022/03/26 11:43:10;;;;;;;22.87;14.90;;;20.10;1.00;;;;;;5053835;28;20452;-78
2022/03/26 11:51:25;;;;;;;24.70;14.47;;;20.00;1.00;;;;;;5048132;28;20468;-79
2022/03/26 11:53:59;;;;;;;26.37;15.60;;;20.00;1.00;;;;;;5051388;28;21524;-80
2022/03/26 11:56:30;;;;;;;26.30;15.03;;;20.00;1.00;;;;;;5054573;28;20596;-77
2022/03/26 11:59:25;;;;;;;23.27;16.13;;;20.10;1.00;;;;;;5061018;28;20813;-79
2022/03/26 12:01:54;;;;;;;25.47;14.83;;;20.20;1.00;;;;;;5061154;28;20817;-79
2022/03/26 12:04:27;;;;;;;22.43;13.77;;;20.20;1.00;;;;;;5060357;28;20458;-79
2022/03/26 12:06:58;;;;;;;22.30;14.50;;;20.30;1.00;;;;;;5056569;28;20447;-79
2022/03/26 12:09:32;;;;;;;24.20;15.20;;;20.30;1.00;;;;;;5057602;28;20471;-78
2022/03/26 12:12:15;;;;;;;23.27;15.10;;;20.30;1.00;;;;;;5061858;28;20446;-79
2022/03/26 12:15:21;;;;;;;21.53;14.17;;;20.30;1.00;;;;;;5062756;28;20945;-79
2022/03/26 12:17:50;;;;;;;22.77;14.83;;;20.30;1.00;;;;;;5056517;28;20566;-78
2022/03/26 12:20:20;;;;;;;24.77;15.37;;;20.30;1.00;;;;;;5061733;28;21018;-80
2022/03/26 12:22:52;;;;;;;23.57;12.50;;;20.40;1.00;;;;;;5063329;28;20437;-79
2022/03/26 12:25:38;;;;;;;26.30;15.00;;;20.50;1.00;;;;;;5061698;28;20517;-78
2022/03/26 12:28:07;;;;;;;22.00;13.30;;;20.40;1.00;;;;;;5064912;28;20546;-76
2022/03/26 12:30:35;;;;;;;23.80;15.00;;;20.50;1.00;;;;;;5062920;28;20444;-79
2022/03/26 12:33:09;;;;;;;21.40;14.40;;;20.50;1.00;;;;;;5062665;28;21031;-79
2022/03/26 12:35:38;;;;;;;15.83;12.40;;;20.50;1.00;;;;;;5063812;28;20459;-79
2022/03/26 12:38:08;;;;;;;19.63;13.33;;;20.60;1.00;;;;;;5062070;28;20474;-77
2022/03/26 12:40:38;;;;;;;21.50;13.53;;;20.70;1.00;;;;;;5062080;28;20446;-79
2022/03/26 12:43:09;;;;;;;21.60;13.50;;;20.60;1.00;;;;;;5060870;28;20447;-77
2022/03/26 12:45:38;;;;;;;20.17;13.97;;;20.70;1.00;;;;;;5064785;28;20458;-81
2022/03/26 12:48:16;;;;;;;23.70;15.07;;;20.70;1.00;;;;;;5055129;28;20482;-80
2022/03/26 12:50:46;;;;;;;23.27;14.00;;;20.70;1.00;;;;;;5063481;28;20447;-78
2022/03/26 12:53:17;;;;;;;26.17;12.80;;;20.70;1.00;;;;;;5062526;28;20464;-79
2022/03/26 12:55:55;;;;;;;18.53;13.13;;;20.80;1.00;;;;;;5067982;28;21125;-78